Weather at Dawsons Airport

Public forecast

Using degrees Celsius for public forecast. Weather courtesy of forecast.io.

Closest aviation weather report (METAR) to Dawsons Airport

Closest report is Robert Gabriel Mugabe International Airport, 56.8 nm (105.2 km) SSE. Retrieved 2021/09/28 16:00 UTC (49 minutes ago):

FVRG 281600Z 07007KT CAVOK 24/09 Q1019 NOSIG

Closest aviation forecast (TAF) to Dawsons Airport

Forecast is more than 6 hours old.

Closest forecast is Robert Gabriel Mugabe International Airport, 56.8 nm (105.2 km) SSE. Retrieved 2021/09/28 06:00 UTC (11 hours ago):

TAF FVRG 280400Z 2806/2912 06010KT CAVOK